Aeroporto :
LOGIN :

Iscrizione | Disclaimer

   EN    FR    IT 

 










Sommario :    VFR   VFR Marginale   IFR   IFR Intensivo   IFR Molto Intensivo
Visibilità : 
Base nubi : 
>= 8 km
>= 3000ft
5 / 8 km
1000 / 3000 ft
1500m / 5 km
500 / 1000 ft
800 / 1500m
200 / 500 ft
< 800m
< 200 ft
Simboli :   Temporali  Nebbia  Neve Forte  Precipitazioni Forti  Vento > 20 kt
SIGMETs :   Varie  Temporali  Ghiacco  Turbolenza  Onda orograficha  Ceneri Vulcaniche






- Altitudine del aeroporto : 659 ft
- Codice IATA : LYN


LFLY - Lyon Bron

ULTIMO METAR :
  • 041500Z AUTO VRB01KT 4500 -RA BR FEW005/// SCT030/// OVC039/// ///TCU 05/04 Q1010 TEMPO 22015G25KT 2500 RA

METARs OBSOLETI :
  • 041430Z AUTO VRB02KT 5000 -RA BR BKN043/// BKN049/// OVC066/// ///TCU 05/04 Q1010 TEMPO 22015G25KT 2500 RA BECMG OVC011
  • 041400Z AUTO 06002KT 3200 -RA BR FEW012/// BKN030/// BKN037/// //////TCU 05/04 Q1010 TEMPO 22015G25KT 2500 RA OVC004
  • 041330Z AUTO 24004KT 220V280 3200 RA BR BKN006/// BKN033/// OVC040/// ///CB 05/04 Q1010 TEMPO 22015G25KT 2500 RA OVC004
  • 041300Z AUTO 01003KT 330V040 5000 -RA BR BKN005/// BKN011/// OVC027/// ///CB 05/04 Q1010 TEMPO OVC004
  • 041230Z AUTO VRB03KT 3500 RA BR OVC006/// //////CB 05/04 Q1010 TEMPO OVC004

TAF AMD TAF LFLY
Valido dal 04 a 14 ore il 05 a 12 ore UTC


041425Z 0414/0512 01005KT 6000 FEW010 SCT030 OVC040
TEMPO 0414/0417 22015G25KT 2500 RA FEW025TCU OVC040
FM041700 18005KT 9999 BKN050
BECMG 0421/0424 VRB02KT 0500 FG VV///
TEMPO 0500/0510 0200
BECMG 0510/0512 3500 BR OVC002
ATIS : +33 4 72 15 87 96



MetMap, La meteo Aeronautica in un colpo d'occhio ! - Copyright ORBIFLY Dicembre 2007 - Disclaimer

ORBIFLY MET'MAP TEAM :

Programmazione e sviluppo : Alexandra Zaïnal
Concezione : Baudouin d'Aumeries
Supporto tecnico e logistico : Manuel Goepfert
Aiuto : Marc-Olivier Méhu
Aiuto per la traduzione : Arnaldo La Scala




FONTI E CREDITI :

   NOAA